createdAt,value
2023-10-25T00:01:46.710Z,12.63
2023-10-25T00:07:06.115Z,10.40
2023-10-25T00:12:10.386Z,12.03
2023-10-25T00:17:17.662Z,13.53
2023-10-25T00:22:22.606Z,11.90
2023-10-25T00:27:26.856Z,11.67
2023-10-25T00:32:30.539Z,8.43
2023-10-25T00:37:35.742Z,7.83
2023-10-25T00:42:39.278Z,7.87
2023-10-25T00:47:43.209Z,5.37
2023-10-25T00:52:51.409Z,4.73
2023-10-25T00:57:55.003Z,5.60
2023-10-25T01:02:59.048Z,7.23
2023-10-25T01:08:04.140Z,8.40
2023-10-25T01:13:07.599Z,7.30
2023-10-25T01:18:11.613Z,8.33
2023-10-25T01:23:16.652Z,7.87
2023-10-25T01:28:20.143Z,8.80
2023-10-25T01:33:23.980Z,6.83
2023-10-25T01:38:28.782Z,8.13
2023-10-25T01:43:32.439Z,8.97
2023-10-25T01:48:35.985Z,8.73
2023-10-25T01:53:42.196Z,7.83
2023-10-25T01:58:45.532Z,6.83
2023-10-25T02:03:49.044Z,9.33
2023-10-25T02:08:53.942Z,7.67
2023-10-25T02:13:59.135Z,7.37
2023-10-25T02:19:02.547Z,8.37
2023-10-25T02:24:08.681Z,7.27
2023-10-25T02:29:12.370Z,7.87
2023-10-25T02:34:16.360Z,9.10
2023-10-25T02:39:24.422Z,7.93
2023-10-25T02:44:28.004Z,8.00
2023-10-25T02:49:31.538Z,7.50
2023-10-25T02:54:36.472Z,6.43
2023-10-25T02:59:44.658Z,8.20
2023-10-25T03:04:48.202Z,6.97
2023-10-25T03:09:53.695Z,6.90
2023-10-25T03:14:57.260Z,6.60
2023-10-25T03:20:04.950Z,6.53
2023-10-25T03:25:13.142Z,7.73
2023-10-25T03:30:17.043Z,9.47
2023-10-25T03:35:21.636Z,8.33
2023-10-25T03:40:26.904Z,8.40
2023-10-25T03:45:30.513Z,6.97
2023-10-25T03:50:34.062Z,8.27
2023-10-25T03:55:39.240Z,7.83
2023-10-25T04:00:42.597Z,9.83
2023-10-25T04:05:46.019Z,7.67
2023-10-25T04:10:55.012Z,6.67
2023-10-25T04:15:58.767Z,6.00
2023-10-25T04:21:03.555Z,6.13
2023-10-25T04:26:09.181Z,6.03
2023-10-25T04:31:13.013Z,5.97
2023-10-25T04:36:16.535Z,5.03
2023-10-25T04:41:21.336Z,7.27
2023-10-25T04:46:24.837Z,6.53
2023-10-25T04:51:28.312Z,6.60
2023-10-25T04:56:33.021Z,7.00
2023-10-25T05:01:36.778Z,6.83
2023-10-25T05:06:40.810Z,7.83
2023-10-25T05:11:50.358Z,7.40
2023-10-25T05:17:02.272Z,8.10
2023-10-25T05:22:13.269Z,6.93
2023-10-25T05:27:26.787Z,6.33
2023-10-25T05:32:39.402Z,6.50
2023-10-25T05:38:16.591Z,7.27
2023-10-25T06:04:38.468Z,7.07
2023-10-25T06:09:42.623Z,8.23
2023-10-25T06:14:46.008Z,7.77
2023-10-25T06:19:54.148Z,14.13
2023-10-25T06:24:57.963Z,11.40
2023-10-25T06:30:32.780Z,12.97
2023-10-25T06:35:38.599Z,6.40
2023-10-25T06:40:43.143Z,9.80
2023-10-25T06:45:49.726Z,9.37
2023-10-25T06:51:07.579Z,8.43
2023-10-25T06:56:15.722Z,6.90
2023-10-25T07:01:21.158Z,4.50
2023-10-25T07:06:27.638Z,7.80
2023-10-25T07:11:31.526Z,8.93
2023-10-25T07:16:36.134Z,5.03
2023-10-25T07:21:43.836Z,7.13
2023-10-25T07:26:49.438Z,5.63
2023-10-25T07:31:53.664Z,6.87
2023-10-25T07:36:58.928Z,6.73
2023-10-25T07:42:03.128Z,6.77
2023-10-25T07:47:31.785Z,8.17
2023-10-25T07:52:39.843Z,11.43
2023-10-25T08:02:49.811Z,10.10
2023-10-25T08:07:54.957Z,6.60
2023-10-25T08:12:58.314Z,7.47
2023-10-25T08:18:01.957Z,6.07
2023-10-25T08:23:06.751Z,7.27
2023-10-25T08:28:10.089Z,7.87
2023-10-25T08:33:15.533Z,7.80
2023-10-25T08:38:40.680Z,8.23
2023-10-25T08:43:54.249Z,8.23
2023-10-25T08:48:59.145Z,4.70
2023-10-25T08:54:05.150Z,5.57
2023-10-25T08:59:10.205Z,5.87
2023-10-25T09:04:13.846Z,4.03
2023-10-25T09:09:21.190Z,6.10
2023-10-25T09:14:25.556Z,4.10
2023-10-25T09:19:32.237Z,5.23
2023-10-25T09:24:49.198Z,6.13
2023-10-25T09:30:00.462Z,6.57
2023-10-25T09:35:06.081Z,4.70
2023-10-25T09:40:15.218Z,7.57
2023-10-25T09:45:20.318Z,7.87
2023-10-25T09:50:32.742Z,7.97
2023-10-25T09:55:39.987Z,5.10
2023-10-25T10:00:44.315Z,7.33
2023-10-25T10:05:51.374Z,6.43
2023-10-25T10:11:00.395Z,6.33
2023-10-25T10:16:05.752Z,8.30
2023-10-25T10:21:10.529Z,7.80
2023-10-25T10:26:15.162Z,9.57
2023-10-25T10:31:19.147Z,9.07
2023-10-25T10:36:25.168Z,7.43
2023-10-25T10:41:30.857Z,7.23
2023-10-25T10:46:36.387Z,7.63
2023-10-25T10:51:39.829Z,7.07
2023-10-25T10:56:44.620Z,5.40
2023-10-25T11:01:48.037Z,7.57
2023-10-25T11:06:52.221Z,6.77
2023-10-25T11:12:06.590Z,6.77
2023-10-25T11:17:10.583Z,9.00
2023-10-25T11:22:14.279Z,8.90
2023-10-25T11:27:18.991Z,8.13
2023-10-25T11:32:22.698Z,7.87
2023-10-25T11:37:28.716Z,8.40
2023-10-25T11:42:43.243Z,5.97
2023-10-25T11:47:51.308Z,7.93
2023-10-25T11:52:55.596Z,8.80
2023-10-25T11:58:04.581Z,5.37
2023-10-25T12:03:11.615Z,6.80
2023-10-25T12:08:15.488Z,6.03
2023-10-25T12:13:21.002Z,7.53
2023-10-25T12:18:29.121Z,6.73
2023-10-25T12:23:37.045Z,9.53
2023-10-25T12:28:52.582Z,7.20
2023-10-25T12:34:03.355Z,8.03
2023-10-25T12:39:07.453Z,7.13
2023-10-25T12:44:13.634Z,7.07
2023-10-25T12:55:49.460Z,5.63
2023-10-25T13:00:56.253Z,5.30
2023-10-25T13:05:59.917Z,6.40
2023-10-25T13:11:04.283Z,5.93
2023-10-25T13:16:09.924Z,5.57
2023-10-25T13:21:16.998Z,5.67
2023-10-25T13:26:22.737Z,7.60
2023-10-25T13:31:28.152Z,9.53
2023-10-25T13:36:31.869Z,4.60
2023-10-25T13:41:35.229Z,4.60
2023-10-25T13:46:40.101Z,4.23
2023-10-25T13:51:43.499Z,3.73
2023-10-25T13:56:53.232Z,6.40
2023-10-25T14:02:09.488Z,4.77
2023-10-25T14:07:12.849Z,4.70
2023-10-25T14:12:16.217Z,5.90
2023-10-25T14:17:21.112Z,6.67
2023-10-25T14:22:24.444Z,7.60
2023-10-25T14:27:27.792Z,10.30
2023-10-25T14:32:32.890Z,7.00
2023-10-25T14:37:37.680Z,6.20
2023-10-25T14:42:40.991Z,7.50
2023-10-25T14:47:45.917Z,4.90
2023-10-25T14:52:49.537Z,7.30
2023-10-25T14:57:53.389Z,7.10
2023-10-25T15:03:00.554Z,8.23
2023-10-25T15:08:06.588Z,5.57
2023-10-25T15:13:10.249Z,5.63
2023-10-25T15:18:15.092Z,4.70
2023-10-25T15:23:18.691Z,4.53
2023-10-25T15:28:21.956Z,9.90
2023-10-25T15:33:26.804Z,14.30
2023-10-25T15:38:30.436Z,8.10
2023-10-25T15:43:33.775Z,4.97
2023-10-25T15:48:43.758Z,7.67
2023-10-25T15:53:47.340Z,3.33
2023-10-25T15:58:50.754Z,2.97
2023-10-25T16:03:56.429Z,2.90
2023-10-25T16:08:59.858Z,4.17
2023-10-25T16:14:03.371Z,2.00
2023-10-25T16:19:08.140Z,2.27
2023-10-25T16:24:11.681Z,1.30
2023-10-25T16:29:15.232Z,2.37
2023-10-25T16:34:19.895Z,1.77
2023-10-25T16:39:23.215Z,2.30
2023-10-25T16:44:26.686Z,1.50
2023-10-25T16:49:31.320Z,2.53
2023-10-25T16:54:34.677Z,1.60
2023-10-25T16:59:38.032Z,1.77
2023-10-25T17:04:42.809Z,1.30
2023-10-25T17:09:46.288Z,1.30
2023-10-25T17:14:50.853Z,0.80
2023-10-25T17:19:55.503Z,4.37
2023-10-25T17:24:59.021Z,2.90
2023-10-25T17:30:02.462Z,1.80
2023-10-25T17:35:09.581Z,0.87
2023-10-25T17:40:13.298Z,2.30
2023-10-25T17:45:17.833Z,19.47
2023-10-25T17:50:23.803Z,1.30
2023-10-25T17:55:34.445Z,1.67
2023-10-25T18:00:47.418Z,1.63
2023-10-25T18:05:55.793Z,1.63
2023-10-25T18:11:00.781Z,0.90
2023-10-25T18:16:04.623Z,2.10
2023-10-25T18:21:10.007Z,3.37
2023-10-25T18:26:18.203Z,2.10
2023-10-25T18:31:55.999Z,2.13
2023-10-25T18:36:52.480Z,1.37
2023-10-25T18:41:59.600Z,4.47
2023-10-25T18:47:03.783Z,1.83
2023-10-25T18:52:20.032Z,2.80
2023-10-25T18:57:25.530Z,2.73
2023-10-25T19:02:32.363Z,2.57
2023-10-25T19:07:37.923Z,3.63
2023-10-25T19:12:41.350Z,1.03
2023-10-25T19:17:44.821Z,2.17
2023-10-25T19:22:51.222Z,0.90
2023-10-25T19:27:55.794Z,3.47
2023-10-25T19:33:02.610Z,1.23
2023-10-25T19:38:11.974Z,2.03
2023-10-25T19:43:16.541Z,1.90
2023-10-25T19:48:19.907Z,0.77
2023-10-25T19:53:25.200Z,2.40
2023-10-25T19:58:31.637Z,1.10
2023-10-25T20:03:35.014Z,2.20
2023-10-25T20:08:42.363Z,1.13
2023-10-25T20:13:50.816Z,1.33
2023-10-25T20:19:01.637Z,1.10
2023-10-25T20:24:15.014Z,0.87
2023-10-25T20:29:20.110Z,2.70
2023-10-25T20:34:27.799Z,1.03
2023-10-25T20:39:34.647Z,1.50
2023-10-25T20:45:02.845Z,1.23
2023-10-25T20:50:12.239Z,2.77
2023-10-25T20:55:17.153Z,2.03
2023-10-25T21:00:24.755Z,3.37
2023-10-25T21:05:28.251Z,5.87
2023-10-25T21:10:33.076Z,2.10
2023-10-25T21:15:36.724Z,2.47
2023-10-25T21:20:45.898Z,1.37
2023-10-25T21:25:50.673Z,4.00
2023-10-25T21:30:53.967Z,4.13
2023-10-25T21:35:57.372Z,3.23
2023-10-25T21:41:03.614Z,3.30
2023-10-25T21:46:08.234Z,3.97
2023-10-25T21:51:11.714Z,2.40
2023-10-25T21:56:23.460Z,6.30
2023-10-25T22:01:29.887Z,3.90
2023-10-25T22:06:33.216Z,2.70
2023-10-25T22:11:38.248Z,7.73
2023-10-25T22:16:42.470Z,1.00
2023-10-25T22:21:45.900Z,4.30
2023-10-25T22:26:53.442Z,2.57
2023-10-25T22:31:56.793Z,3.53
2023-10-25T22:37:00.092Z,4.27
2023-10-25T22:42:05.272Z,3.00
2023-10-25T22:47:08.760Z,1.33
2023-10-25T22:52:12.096Z,2.40
2023-10-25T22:57:17.898Z,1.40
2023-10-25T23:02:21.514Z,1.20
2023-10-25T23:07:26.833Z,1.57
2023-10-25T23:12:31.655Z,2.07
2023-10-25T23:17:34.998Z,2.73
2023-10-25T23:22:38.412Z,0.90
2023-10-25T23:27:43.156Z,1.27
2023-10-25T23:32:46.533Z,1.30
2023-10-25T23:37:50.004Z,2.80
2023-10-25T23:42:54.642Z,4.77
2023-10-25T23:47:58.066Z,4.30
2023-10-25T23:53:01.489Z,1.80
2023-10-25T23:58:06.215Z,5.07
